Weather reports worldwide

Advertisment
Palacios de la Sierra, Spain (8149): temperature & dewpoint: 24.10.2020 11:00:00 - 30.10.2020 11:00:00 (CET)Palacios de la Sierra, Spain (8149): wind speed & gusts: 24.10.2020 11:00:00 - 30.10.2020 11:00:00 (CET)Palacios de la Sierra, Spain (8149): wind direction: 24.10.2020 11:00:00 - 30.10.2020 11:00:00 (CET)Palacios de la Sierra, Spain (8149): visibility: 24.10.2020 11:00:00 - 30.10.2020 11:00:00 (CET)Palacios de la Sierra, Spain (8149): sunshine duration: 24.10.2020 11:00:00 - 30.10.2020 11:00:00 (CET)Palacios de la Sierra, Spain (8149): precipitation: 24.10.2020 11:00:00 - 30.10.2020 11:00:00 (CET)
Date & Time tt [°C] td [°C] ff [km/h] ff [kn] fx [km/h] fx [kn] dd vv [km] sd [min] rr [mm]
30.10.2020 11:00:00 - - - - - - - - - -
30.10.2020 10:00:00 6,0 3,6 4 2 11 6 ESE 20 60 0,0
30.10.2020 09:00:00 2,0 0,4 5 3 11 6 SE 20 49 0,0
30.10.2020 08:00:00 0,0 -1,0 5 3 12 7 SE 20 0 0,0
30.10.2020 07:00:00 0,1 -0,7 5 3 16 9 SE 20 0 -
30.10.2020 06:00:00 0,0 -1,0 4 2 16 9 SSE 20 0 0,0
30.10.2020 05:00:00 0,4 -0,5 6 3 13 7 SSE 20 0 0,0
30.10.2020 04:00:00 1,2 0,3 5 3 13 7 SE - 0 0,0
30.10.2020 03:00:00 1,0 0,2 8 4 13 7 SSE 7 0 0,0
30.10.2020 02:00:00 2,0 1,1 10 6 15 8 S 9 0 0,0
30.10.2020 01:00:00 2,7 1,7 8 4 16 9 S 1,6 0 -
30.10.2020 00:00:00 3,2 1,9 7 4 14 7 S 1,8 0 0,0
29.10.2020 23:00:00 4,6 3,2 4 2 13 7 S 20 0 0,0
29.10.2020 22:00:00 5,6 3,9 5 3 13 7 S 3,9 0 0,0
29.10.2020 21:00:00 7,0 5,3 5 3 13 7 S 20 0 0,0
29.10.2020 20:00:00 8,4 6,2 5 3 14 7 S 20 0 0,0
29.10.2020 19:00:00 - - - - - - - - - -
29.10.2020 18:00:00 13,7 6,8 9 5 13 7 S 20 23 0,0
29.10.2020 17:00:00 18,4 6,5 5 3 11 6 W 20 60 0,0
29.10.2020 16:00:00 18,7 5,9 6 3 14 7 WNW 20 60 0,0
29.10.2020 15:00:00 18,1 5,3 3 2 14 7 W 20 60 0,0
29.10.2020 14:00:00 17,2 6,1 5 3 13 7 E 20 60 0,0
29.10.2020 13:00:00 15,4 6,1 5 3 18 10 ENE 20 60 -
29.10.2020 12:00:00 13,6 6,8 3 2 9 5 S 20 60 0,0
29.10.2020 11:00:00 11,7 5,9 5 3 18 10 WSW 20 60 0,0
29.10.2020 10:00:00 8,9 6,5 2 1 14 8 WNW 20 26 0,0
29.10.2020 09:00:00 6,5 5,3 3 1 10 5 NNE 20 1 0,0
29.10.2020 08:00:00 6,9 5,8 3 1 5 3 ESE 15 0 0,0
29.10.2020 07:00:00 6,7 5,6 1 1 6 3 NW 19 0 -
29.10.2020 06:00:00 6,6 5,5 0 0 5 3 N 12 0 0,0
29.10.2020 05:00:00 6,9 5,8 1 1 11 6 SSW 15 0 0,0
29.10.2020 04:00:00 6,6 5,6 3 1 10 6 S 20 0 0,0
29.10.2020 03:00:00 6,2 5,1 2 1 5 3 SE 20 0 0,0
29.10.2020 02:00:00 6,1 5,0 0 0 9 5 N 19 0 0,0
29.10.2020 01:00:00 5,5 4,5 3 2 14 8 ESE 20 0 -
29.10.2020 00:00:00 5,2 4,1 0 0 10 5 N 20 0 0,0
28.10.2020 23:00:00 4,8 3,8 1 1 13 7 SSW 20 0 0,0
28.10.2020 22:00:00 5,1 3,9 5 3 13 7 S 0,6 0 0,0
28.10.2020 21:00:00 6,2 5,0 6 3 16 9 SSE 20 0 0,0
28.10.2020 20:00:00 7,0 5,5 4 2 15 8 SSE 18 0 0,0
28.10.2020 19:00:00 8,6 6,1 5 3 16 9 WSW 20 0 -
28.10.2020 18:00:00 10,6 7,0 6 3 16 9 W 20 2 0,0
28.10.2020 17:00:00 13,3 6,7 14 8 27 15 W 20 40 0,0
28.10.2020 16:00:00 13,8 8,0 11 6 29 16 W 20 26 0,0
28.10.2020 15:00:00 13,6 8,8 14 8 24 13 W 20 23 0,0
28.10.2020 14:00:00 12,5 9,6 9 5 - - W 20 - -
28.10.2020 13:00:00 13,0 9,4 8 5 22 12 W 20 7 -
28.10.2020 12:00:00 12,1 9,4 9 5 26 14 WNW 20 4 0,0
28.10.2020 11:00:00 11,0 9,4 8 5 23 12 W 20 0 0,2
28.10.2020 10:00:00 10,0 9,0 8 4 15 8 WNW 20 0 0,0
28.10.2020 09:00:00 8,7 7,6 1 1 5 3 WSW 1,8 0 0,2
28.10.2020 08:00:00 8,3 7,3 1 1 5 3 SSW 2,4 0 0,2
28.10.2020 07:00:00 8,1 7,0 3 1 4 2 E 1,7 0 -
28.10.2020 06:00:00 8,0 7,0 1 1 4 2 SSW 3,2 0 0,2
28.10.2020 05:00:00 7,8 6,7 3 2 8 4 NW 4,7 0 0,4
28.10.2020 04:00:00 7,9 6,8 5 3 12 7 W 1,7 0 0,0
28.10.2020 03:00:00 7,8 6,7 5 3 14 7 WNW 4,8 0 0,0
28.10.2020 02:00:00 7,7 6,7 3 2 8 4 NNW 3,2 0 0,2
28.10.2020 01:00:00 7,5 6,4 4 2 7 4 NE 3,6 0 -
28.10.2020 00:00:00 7,4 6,4 1 1 15 8 E 3,5 0 0,2
27.10.2020 23:00:00 7,3 6,2 3 2 13 7 N 3,7 0 0,2
27.10.2020 22:00:00 7,2 6,1 2 1 7 4 NNW 9 0 0,2
27.10.2020 21:00:00 7,0 5,8 2 1 7 4 NNW 3,1 0 0,2
27.10.2020 20:00:00 6,9 5,6 1 1 14 7 NNW 2,3 0 0,4
27.10.2020 19:00:00 6,9 5,5 1 1 15 8 W 2,8 0 -
27.10.2020 18:00:00 7,0 5,5 4 2 14 8 WNW 6 0 0,0
27.10.2020 17:00:00 7,2 5,1 6 3 21 11 WNW 18 0 0,0
27.10.2020 16:00:00 7,2 4,8 14 8 29 15 W 20 0 0,0
27.10.2020 15:00:00 7,0 4,8 10 5 20 11 WNW 20 0 0,0
27.10.2020 14:00:00 6,5 4,5 9 5 22 12 W 20 0 0,0
27.10.2020 13:00:00 6,1 4,1 10 6 24 13 W 8 0 -
27.10.2020 12:00:00 5,6 3,6 12 7 31 17 W 9 0 0,0
27.10.2020 11:00:00 5,0 3,2 14 8 26 14 WNW 20 0 0,0
27.10.2020 10:00:00 4,5 2,9 13 7 25 13 W 19 0 0,0
27.10.2020 09:00:00 4,3 2,5 11 6 25 13 W 20 0 0,0
27.10.2020 08:00:00 4,4 2,3 13 7 24 13 W 20 0 0,0
27.10.2020 07:00:00 4,3 2,3 9 5 18 10 W 20 0 -
27.10.2020 06:00:00 4,2 1,9 8 4 23 12 W 20 0 0,0
27.10.2020 05:00:00 4,2 1,9 12 7 24 13 W 20 0 0,0
27.10.2020 04:00:00 4,2 1,9 7 4 19 11 WSW 20 0 0,0
27.10.2020 03:00:00 4,1 1,9 12 7 24 13 W 20 0 0,0
27.10.2020 02:00:00 4,4 2,1 7 4 14 8 W 20 0 0,0
27.10.2020 01:00:00 4,7 2,3 9 5 16 8 WNW 20 0 -
27.10.2020 00:00:00 4,9 2,3 6 3 26 14 W 20 0 0,0
26.10.2020 23:00:00 5,4 2,3 14 8 29 16 W 20 0 0,0
26.10.2020 22:00:00 5,6 2,3 13 7 22 12 WSW 20 0 0,0
26.10.2020 21:00:00 5,6 2,1 12 7 23 12 WSW 20 0 0,2
26.10.2020 20:00:00 5,6 1,1 4 2 14 8 W 20 0 0,0
26.10.2020 19:00:00 6,2 0,9 10 6 29 16 WSW 20 0 -
26.10.2020 18:00:00 6,8 1,3 11 6 32 17 WSW 20 14 0,0
26.10.2020 17:00:00 8,0 1,7 13 7 31 17 W 20 11 0,0
26.10.2020 16:00:00 7,5 0,9 15 8 33 18 WNW 20 1 0,0
26.10.2020 15:00:00 7,5 1,1 14 8 35 19 W 20 18 0,0
26.10.2020 14:00:00 7,0 1,3 16 9 33 18 NW 20 12 0,0
26.10.2020 13:00:00 5,9 1,1 15 8 32 18 WNW 20 2 -
26.10.2020 12:00:00 5,3 0,9 14 8 29 16 W 20 13 0,0
26.10.2020 11:00:00 3,5 0,9 13 7 30 16 WNW 20 0 0,0
26.10.2020 10:00:00 2,7 0,4 15 8 33 18 WNW 20 0 0,0
26.10.2020 09:00:00 2,5 0,4 14 8 31 17 W 20 0 0,0
26.10.2020 08:00:00 2,6 0,6 16 8 35 19 W 20 0 0,0
26.10.2020 07:00:00 2,8 0,9 15 8 34 19 WNW 20 0 -
26.10.2020 06:00:00 2,9 1,1 16 9 33 18 WNW 20 0 0,0
26.10.2020 05:00:00 3,1 1,1 13 7 27 15 WNW 20 0 0,0
26.10.2020 04:00:00 3,3 1,1 14 7 31 17 W 20 0 0,0
26.10.2020 03:00:00 3,5 1,7 9 5 21 11 W 20 0 0,0
26.10.2020 02:00:00 3,6 1,9 6 3 17 9 W 20 0 0,0
26.10.2020 01:00:00 4,1 2,1 6 4 32 17 W 20 0 -
26.10.2020 00:00:00 4,6 2,7 18 10 36 19 W 20 0 0,0
25.10.2020 23:00:00 5,0 2,9 18 10 35 19 WSW 20 0 0,0
25.10.2020 22:00:00 5,1 2,9 6 3 24 13 W 20 0 1,4
25.10.2020 21:00:00 5,9 3,2 10 5 32 17 WNW 20 0 0,0
25.10.2020 20:00:00 7,1 3,9 18 10 42 23 W 20 0 0,0
25.10.2020 19:00:00 7,8 5,0 9 5 32 17 W 20 0 -
25.10.2020 18:00:00 9,7 7,8 20 11 48 26 W 6 0 1,8
25.10.2020 17:00:00 10,1 7,8 21 11 45 25 W 11 0 5,2
25.10.2020 16:00:00 10,5 8,8 10 5 29 16 WSW 10 0 3,6
25.10.2020 15:00:00 9,9 8,0 5 3 23 12 WSW 6 0 0,8
25.10.2020 14:00:00 10,4 8,5 4 2 19 10 S 6 0 0,4
25.10.2020 13:00:00 9,4 7,1 6 3 16 8 ESE 4,5 0 -
25.10.2020 12:00:00 9,7 6,8 2 1 9 5 N 19 0 0,2
25.10.2020 11:00:00 9,5 5,5 5 3 14 8 E 20 0 0,0
25.10.2020 10:00:00 9,3 5,5 4 2 20 11 ESE 20 0 0,0
25.10.2020 09:00:00 9,8 5,5 8 4 34 19 SSW 20 0 0,0
25.10.2020 08:00:00 9,8 5,0 12 6 29 16 W 20 0 0,0
25.10.2020 07:00:00 9,5 5,0 13 7 40 21 W 20 0 -
25.10.2020 06:00:00 9,4 4,8 12 7 38 20 WSW 20 0 0,0
25.10.2020 05:00:00 9,2 5,0 14 7 35 19 W 20 0 0,0
25.10.2020 04:00:00 8,9 4,6 14 8 34 18 W 20 0 0,0
25.10.2020 03:00:00 8,8 4,8 10 5 34 18 W 20 0 0,0
25.10.2020 02:00:00 8,8 4,8 11 6 27 15 SW 20 0 0,0
25.10.2020 01:00:00 - - - - - - - - - -
25.10.2020 00:00:00 8,8 5,1 13 7 32 18 W 20 0 0,0
24.10.2020 23:00:00 9,3 5,8 9 5 30 16 WSW 20 0 0,0
24.10.2020 22:00:00 9,1 5,8 8 4 16 9 W 20 0 0,0
24.10.2020 21:00:00 9,2 5,6 6 4 13 7 W 20 0 0,0
24.10.2020 20:00:00 9,1 5,6 4 2 14 8 SW 20 0 0,0
24.10.2020 19:00:00 9,3 5,5 9 5 18 10 W 20 0 -
24.10.2020 18:00:00 9,8 5,6 8 4 17 9 W 20 0 0,0
24.10.2020 17:00:00 10,6 5,6 7 4 16 9 W 20 30 0,0
24.10.2020 16:00:00 10,6 5,3 11 6 23 13 W 20 37 0,0
24.10.2020 15:00:00 10,1 5,1 11 6 24 13 W 20 5 0,0
24.10.2020 14:00:00 9,6 5,0 7 4 26 14 W 20 1 0,0
24.10.2020 13:00:00 - - - - - - - - - -
24.10.2020 12:00:00 9,5 4,5 10 5 26 14 W 20 3 0,0
24.10.2020 11:00:00 8,1 4,3 12 7 27 14 W 20 0 0,0

tt = temperature
td = dewpoint
ff = wind speed
fx = gusts
dd = wind direction
vv = visibility
sd = sunshine duration
rr = precipitation

Next stations